createdAt,value
2023-03-03T00:01:27.436Z,101810.94
2023-03-03T00:03:57.457Z,101811.69
2023-03-03T00:06:25.813Z,101815.84
2023-03-03T00:08:53.621Z,101814.28
2023-03-03T00:11:22.677Z,101809.44
2023-03-03T00:13:52.554Z,101805.06
2023-03-03T00:16:25.473Z,101808.69
2023-03-03T00:18:54.268Z,101812.19
2023-03-03T00:21:30.068Z,101813.50
2023-03-03T00:24:18.114Z,101828.78
2023-03-03T00:26:48.780Z,101842.03
2023-03-03T00:29:30.914Z,101847.94
2023-03-03T00:32:23.801Z,101843.91
2023-03-03T00:34:52.669Z,101842.72
2023-03-03T00:37:42.275Z,101842.47
2023-03-03T00:40:34.233Z,101847.69
2023-03-03T00:43:13.278Z,101835.44
2023-03-03T00:45:44.652Z,101838.16
2023-03-03T00:48:23.188Z,101840.94
2023-03-03T00:50:51.770Z,101839.09
2023-03-03T00:53:20.945Z,101842.84
2023-03-03T00:55:50.777Z,101841.34
2023-03-03T00:58:21.935Z,101840.06
2023-03-03T01:00:50.699Z,101837.69
2023-03-03T01:03:21.563Z,101826.50
2023-03-03T01:05:51.876Z,101817.97
2023-03-03T01:08:20.976Z,101815.63
2023-03-03T01:10:51.814Z,101819.25
2023-03-03T01:13:23.605Z,101831.75
2023-03-03T01:15:51.982Z,101834.31
2023-03-03T01:18:19.838Z,101838.69
2023-03-03T01:20:48.240Z,101842.59
2023-03-03T01:23:15.992Z,101833.34
2023-03-03T01:25:43.637Z,101830.44
2023-03-03T01:28:11.868Z,101824.88
2023-03-03T01:30:41.231Z,101829.13
2023-03-03T01:33:08.910Z,101830.97
2023-03-03T01:35:36.826Z,101834.81
2023-03-03T01:38:04.688Z,101827.13
2023-03-03T01:40:32.657Z,101830.75
2023-03-03T01:43:00.799Z,101833.75
2023-03-03T01:45:30.152Z,101842.41
2023-03-03T01:48:02.665Z,101850.72
2023-03-03T01:50:42.776Z,101840.59
2023-03-03T01:53:16.569Z,101839.41
2023-03-03T01:55:45.524Z,101838.56
2023-03-03T01:58:16.517Z,101848.50
2023-03-03T02:00:47.725Z,101844.03
2023-03-03T02:03:17.064Z,101835.06
2023-03-03T02:05:45.175Z,101825.88
2023-03-03T02:08:16.929Z,101822.13
2023-03-03T02:10:46.030Z,101819.13
2023-03-03T02:13:13.938Z,101823.38
2023-03-03T02:15:41.552Z,101817.09
2023-03-03T02:18:13.343Z,101818.69
2023-03-03T02:20:54.772Z,101816.66
2023-03-03T02:23:26.216Z,101823.06
2023-03-03T02:26:06.745Z,101823.38
2023-03-03T02:28:37.700Z,101807.50
2023-03-03T02:31:08.347Z,101814.53
2023-03-03T02:33:37.090Z,101800.00
2023-03-03T02:36:04.940Z,101809.72
2023-03-03T02:38:38.566Z,101802.44
2023-03-03T02:41:14.118Z,101794.25
2023-03-03T02:43:47.698Z,101801.38
2023-03-03T02:46:15.398Z,101797.63
2023-03-03T02:48:43.436Z,101793.03
2023-03-03T02:51:11.262Z,101790.97
2023-03-03T02:53:38.981Z,101794.16
2023-03-03T02:56:12.767Z,101789.91
2023-03-03T02:58:40.493Z,101782.03
2023-03-03T03:01:08.666Z,101788.44
2023-03-03T03:03:36.370Z,101777.56
2023-03-03T03:06:04.353Z,101786.50
2023-03-03T03:08:32.032Z,101790.38
2023-03-03T03:11:01.145Z,101799.22
2023-03-03T03:13:30.674Z,101784.94
2023-03-03T03:15:58.649Z,101790.91
2023-03-03T03:18:27.213Z,101788.84
2023-03-03T03:20:55.231Z,101800.38
2023-03-03T03:23:23.020Z,101796.97
2023-03-03T03:25:51.209Z,101800.59
2023-03-03T03:28:19.262Z,101805.72
2023-03-03T03:30:48.605Z,101796.84
2023-03-03T03:33:16.310Z,101801.47
2023-03-03T03:35:45.613Z,101800.50
2023-03-03T03:38:13.814Z,101795.88
2023-03-03T03:40:43.355Z,101804.75
2023-03-03T03:43:10.972Z,101795.88
2023-03-03T03:45:38.698Z,101797.72
2023-03-03T03:48:07.888Z,101796.84
2023-03-03T03:50:36.926Z,101792.03
2023-03-03T03:53:04.690Z,101793.84
2023-03-03T03:55:32.554Z,101794.50
2023-03-03T03:58:00.276Z,101804.41
2023-03-03T04:00:27.920Z,101810.81
2023-03-03T04:02:55.702Z,101812.53
2023-03-03T04:05:25.011Z,101806.00
2023-03-03T04:07:52.692Z,101803.09
2023-03-03T04:10:20.666Z,101809.50
2023-03-03T04:12:48.345Z,101812.19
2023-03-03T04:15:16.289Z,101808.91
2023-03-03T04:17:44.243Z,101808.38
2023-03-03T04:20:15.206Z,101823.88
2023-03-03T04:22:44.644Z,101822.19
2023-03-03T04:25:15.379Z,101819.91
2023-03-03T04:27:44.171Z,101827.81
2023-03-03T04:30:13.592Z,101816.41
2023-03-03T04:32:41.698Z,101817.88
2023-03-03T04:35:10.558Z,101827.47
2023-03-03T04:37:39.726Z,101826.72
2023-03-03T04:40:10.827Z,101816.16
2023-03-03T04:42:39.640Z,101822.97
2023-03-03T04:45:08.689Z,101821.50
2023-03-03T04:47:36.298Z,101815.09
2023-03-03T04:50:04.379Z,101821.78
2023-03-03T04:52:32.641Z,101820.50
2023-03-03T04:55:00.276Z,101824.25
2023-03-03T04:57:29.373Z,101831.72
2023-03-03T04:59:56.972Z,101831.72
2023-03-03T05:02:25.391Z,101837.06
2023-03-03T05:04:53.412Z,101832.25
2023-03-03T05:07:21.000Z,101835.78
2023-03-03T05:09:48.882Z,101826.97
2023-03-03T05:12:17.168Z,101827.16
2023-03-03T05:14:46.355Z,101818.28
2023-03-03T05:17:13.964Z,101815.50
2023-03-03T05:19:41.981Z,101810.78
2023-03-03T05:22:10.279Z,101815.41
2023-03-03T05:24:38.115Z,101814.41
2023-03-03T05:27:05.795Z,101813.69
2023-03-03T05:29:33.487Z,101806.63
2023-03-03T05:32:02.484Z,101800.09
2023-03-03T05:34:30.137Z,101798.19
2023-03-03T05:36:57.699Z,101800.84
2023-03-03T05:39:25.370Z,101800.84
2023-03-03T05:41:52.989Z,101788.44
2023-03-03T05:44:20.830Z,101793.91
2023-03-03T05:46:48.471Z,101797.19
2023-03-03T05:49:17.537Z,101798.69
2023-03-03T05:51:45.263Z,101799.97
2023-03-03T05:54:12.927Z,101798.06
2023-03-03T05:56:40.644Z,101800.59
2023-03-03T05:59:08.265Z,101792.72
2023-03-03T06:01:36.019Z,101793.91
2023-03-03T06:04:03.746Z,101801.94
2023-03-03T06:06:32.795Z,101812.38
2023-03-03T06:09:00.624Z,101815.09
2023-03-03T06:11:28.219Z,101832.00
2023-03-03T06:13:55.887Z,101829.84
2023-03-03T06:16:23.867Z,101828.50
2023-03-03T06:18:51.584Z,101836.53
2023-03-03T06:21:19.447Z,101839.44
2023-03-03T06:23:48.386Z,101846.69
2023-03-03T06:26:16.090Z,101855.78
2023-03-03T06:28:43.725Z,101854.94
2023-03-03T06:31:12.708Z,101861.13
2023-03-03T06:33:42.162Z,101867.56
2023-03-03T06:36:10.973Z,101869.38
2023-03-03T06:38:38.808Z,101868.63
2023-03-03T06:41:11.196Z,101864.47
2023-03-03T06:43:38.973Z,101872.38
2023-03-03T06:46:07.001Z,101867.59
2023-03-03T06:48:35.228Z,101866.22
2023-03-03T06:51:11.563Z,101872.50
2023-03-03T06:53:39.627Z,101863.97
2023-03-03T06:56:11.042Z,101868.47
2023-03-03T06:58:38.775Z,101873.78
2023-03-03T07:01:16.365Z,101873.03
2023-03-03T07:03:44.232Z,101874.63
2023-03-03T07:06:22.209Z,101867.25
2023-03-03T07:08:49.973Z,101874.94
2023-03-03T07:11:21.191Z,101876.00
2023-03-03T07:13:51.372Z,101876.53
2023-03-03T07:16:20.991Z,101881.03
2023-03-03T07:18:55.416Z,101880.91
2023-03-03T07:21:24.909Z,101879.50
2023-03-03T07:23:54.543Z,101886.31
2023-03-03T07:26:28.930Z,101886.59
2023-03-03T07:29:01.313Z,101891.19
2023-03-03T07:31:32.412Z,101893.81
2023-03-03T07:34:01.370Z,101899.16
2023-03-03T07:36:31.006Z,101894.94
2023-03-03T07:39:01.217Z,101884.78
2023-03-03T07:41:34.669Z,101899.22
2023-03-03T07:44:06.776Z,101894.84
2023-03-03T07:46:42.648Z,101890.13
2023-03-03T07:49:22.820Z,101892.47
2023-03-03T07:51:54.777Z,101900.38
2023-03-03T07:54:31.134Z,101906.78
2023-03-03T07:57:07.802Z,101903.66
2023-03-03T07:59:37.867Z,101899.91
2023-03-03T08:02:17.852Z,101909.00
2023-03-03T08:04:50.815Z,101922.28
2023-03-03T08:07:21.403Z,101917.19
2023-03-03T08:09:51.999Z,101919.38
2023-03-03T08:12:29.884Z,101910.22
2023-03-03T08:15:09.090Z,101916.63
2023-03-03T08:17:40.029Z,101915.47
2023-03-03T08:20:51.328Z,101913.16
2023-03-03T08:23:21.880Z,101918.44
2023-03-03T08:25:51.204Z,101920.03
2023-03-03T08:28:20.434Z,101919.47
2023-03-03T08:30:49.062Z,101916.56
2023-03-03T08:33:17.725Z,101922.78
2023-03-03T08:35:46.029Z,101926.53
2023-03-03T08:38:15.143Z,101927.16
2023-03-03T08:40:43.321Z,101927.31
2023-03-03T08:43:14.465Z,101932.31
2023-03-03T08:45:43.720Z,101930.75
2023-03-03T08:48:11.771Z,101929.22
2023-03-03T08:50:40.053Z,101930.63
2023-03-03T08:53:09.048Z,101923.19
2023-03-03T08:55:36.661Z,101924.47
2023-03-03T08:58:05.651Z,101921.28
2023-03-03T09:00:33.635Z,101927.13
2023-03-03T09:03:02.918Z,101923.72
2023-03-03T09:05:31.433Z,101929.31
2023-03-03T09:08:00.411Z,101918.16
2023-03-03T09:10:31.741Z,101926.44
2023-03-03T09:13:03.562Z,101925.50
2023-03-03T09:15:34.090Z,101926.09
2023-03-03T09:18:14.849Z,101923.31
2023-03-03T09:20:43.921Z,101926.31
2023-03-03T09:23:33.702Z,101924.75
2023-03-03T09:26:23.260Z,101919.16
2023-03-03T09:28:51.095Z,101911.63
2023-03-03T09:31:26.282Z,101916.13
2023-03-03T09:33:57.777Z,101920.75
2023-03-03T09:36:27.948Z,101913.72
2023-03-03T09:38:56.942Z,101922.50
2023-03-03T09:41:45.521Z,101924.31
2023-03-03T09:44:49.794Z,101930.41
2023-03-03T09:47:31.451Z,101927.22
2023-03-03T09:50:08.878Z,101926.13
2023-03-03T09:52:49.153Z,101921.16
2023-03-03T09:55:31.950Z,101927.88
2023-03-03T09:58:14.563Z,101935.19
2023-03-03T10:00:54.823Z,101937.34
2023-03-03T10:03:58.000Z,101933.53
2023-03-03T10:06:32.901Z,101941.09
2023-03-03T10:09:29.299Z,101936.72
2023-03-03T10:12:03.914Z,101928.94
2023-03-03T10:14:50.886Z,101939.63
2023-03-03T10:17:31.090Z,101942.53
2023-03-03T10:20:18.360Z,101937.91
2023-03-03T10:22:53.237Z,101942.75
2023-03-03T10:25:30.718Z,101949.75
2023-03-03T10:28:16.359Z,101950.78
2023-03-03T10:31:04.881Z,101952.94
2023-03-03T10:33:45.099Z,101943.91
2023-03-03T10:36:35.400Z,101944.28
2023-03-03T10:39:19.476Z,101939.44
2023-03-03T10:42:16.290Z,101942.63
2023-03-03T10:45:06.164Z,101932.19
2023-03-03T10:47:44.617Z,101945.81
2023-03-03T10:50:18.278Z,101940.97
2023-03-03T10:52:49.873Z,101946.56
2023-03-03T10:55:26.955Z,101946.81
2023-03-03T10:58:20.903Z,101950.09
2023-03-03T11:00:52.609Z,101944.50
2023-03-03T11:04:01.275Z,101943.16
2023-03-03T11:06:40.507Z,101943.13
2023-03-03T11:09:19.422Z,101944.47
2023-03-03T11:11:55.699Z,101947.19
2023-03-03T11:14:30.812Z,101937.34
2023-03-03T11:17:04.061Z,101942.22
2023-03-03T11:19:47.326Z,101938.31
2023-03-03T11:22:29.659Z,101941.72
2023-03-03T11:25:06.100Z,101937.97
2023-03-03T11:27:52.661Z,101938.06
2023-03-03T11:30:35.577Z,101932.69
2023-03-03T11:33:07.568Z,101928.72
2023-03-03T11:35:45.215Z,101921.16
2023-03-03T11:38:29.417Z,101918.09
2023-03-03T11:40:59.984Z,101913.63
2023-03-03T11:43:36.914Z,101914.94
2023-03-03T11:46:09.900Z,101913.59
2023-03-03T11:48:47.206Z,101914.69
2023-03-03T11:51:21.061Z,101904.84
2023-03-03T11:53:58.242Z,101899.50
2023-03-03T11:56:30.809Z,101900.06
2023-03-03T11:59:15.037Z,101899.09
2023-03-03T12:01:48.493Z,101904.94
2023-03-03T12:04:21.492Z,101891.59
2023-03-03T12:07:16.828Z,101891.19
2023-03-03T12:09:56.122Z,101893.03
2023-03-03T12:12:26.116Z,101885.22
2023-03-03T12:15:09.428Z,101891.91
2023-03-03T12:17:52.626Z,101882.03
2023-03-03T12:20:29.901Z,101880.72
2023-03-03T12:23:09.613Z,101873.72
2023-03-03T12:25:41.848Z,101872.19
2023-03-03T12:28:16.144Z,101861.06
2023-03-03T12:31:02.290Z,101862.22
2023-03-03T12:33:46.990Z,101867.72
2023-03-03T12:36:46.165Z,101871.22
2023-03-03T12:39:34.671Z,101859.56
2023-03-03T12:42:11.533Z,101855.22
2023-03-03T12:44:44.754Z,101856.78
2023-03-03T12:47:22.881Z,101856.72
2023-03-03T12:50:08.347Z,101852.44
2023-03-03T12:52:49.887Z,101846.22
2023-03-03T12:55:38.067Z,101841.19
2023-03-03T12:58:17.611Z,101841.91
2023-03-03T13:00:56.463Z,101830.88
2023-03-03T13:03:53.289Z,101835.44
2023-03-03T13:06:30.115Z,101837.66
2023-03-03T13:09:18.253Z,101836.16
2023-03-03T13:12:01.834Z,101830.53
2023-03-03T13:14:36.673Z,101823.66
2023-03-03T13:17:16.737Z,101827.22
2023-03-03T13:19:50.535Z,101826.63
2023-03-03T13:22:36.373Z,101828.19
2023-03-03T13:25:10.036Z,101831.19
2023-03-03T13:27:41.901Z,101825.88
2023-03-03T13:30:18.129Z,101826.59
2023-03-03T13:32:50.838Z,101826.28
2023-03-03T13:35:31.504Z,101824.19
2023-03-03T13:38:00.212Z,101823.53
2023-03-03T13:40:35.323Z,101821.69
2023-03-03T13:43:11.078Z,101815.09
2023-03-03T13:45:49.324Z,101816.53
2023-03-03T13:48:31.363Z,101805.94
2023-03-03T13:51:10.027Z,101815.69
2023-03-03T13:53:50.461Z,101799.84
2023-03-03T13:56:49.514Z,101802.75
2023-03-03T13:59:29.836Z,101801.88
2023-03-03T14:02:05.086Z,101804.97
2023-03-03T14:04:48.346Z,101795.22
2023-03-03T14:07:22.898Z,101791.00
2023-03-03T14:10:03.552Z,101791.13
2023-03-03T14:12:43.438Z,101784.38
2023-03-03T14:15:22.120Z,101786.38
2023-03-03T14:18:15.509Z,101782.13
2023-03-03T14:20:49.117Z,101784.34
2023-03-03T14:23:24.238Z,101776.16
2023-03-03T14:26:08.980Z,101780.28
2023-03-03T14:28:41.637Z,101774.09
2023-03-03T14:31:19.530Z,101772.53
2023-03-03T14:33:59.216Z,101780.38
2023-03-03T14:36:32.076Z,101771.25
2023-03-03T14:39:03.562Z,101775.38
2023-03-03T14:41:40.117Z,101774.97
2023-03-03T14:44:28.597Z,101767.44
2023-03-03T14:47:21.019Z,101767.69
2023-03-03T14:49:49.284Z,101767.69
2023-03-03T14:52:24.785Z,101761.88
2023-03-03T14:54:55.797Z,101760.97
2023-03-03T14:57:46.310Z,101759.41
2023-03-03T15:00:35.877Z,101752.16
2023-03-03T15:03:19.473Z,101749.44
2023-03-03T15:05:51.091Z,101755.19
2023-03-03T15:08:28.974Z,101752.91
2023-03-03T15:11:17.440Z,101750.34
2023-03-03T15:13:45.453Z,101749.22
2023-03-03T15:16:19.751Z,101749.16
2023-03-03T15:19:20.495Z,101745.19
2023-03-03T15:21:59.587Z,101744.78
2023-03-03T15:24:36.220Z,101743.66
2023-03-03T15:27:13.556Z,101735.56
2023-03-03T15:29:56.500Z,101732.81
2023-03-03T15:32:31.036Z,101729.63
2023-03-03T15:35:07.760Z,101728.19
2023-03-03T15:37:47.232Z,101725.38
2023-03-03T15:40:25.815Z,101725.63
2023-03-03T15:43:03.118Z,101718.22
2023-03-03T15:45:35.575Z,101714.91
2023-03-03T15:48:14.830Z,101726.94
2023-03-03T15:50:56.988Z,101722.09
2023-03-03T15:53:37.752Z,101721.50
2023-03-03T15:56:16.971Z,101719.53
2023-03-03T15:59:08.420Z,101711.94
2023-03-03T16:01:42.467Z,101712.28
2023-03-03T16:04:14.293Z,101708.34
2023-03-03T16:06:50.357Z,101708.22
2023-03-03T16:09:30.470Z,101707.56
2023-03-03T16:12:09.903Z,101707.13
2023-03-03T16:14:59.929Z,101710.38
2023-03-03T16:17:36.613Z,101709.00
2023-03-03T16:20:20.641Z,101707.06
2023-03-03T16:23:09.704Z,101711.16
2023-03-03T16:25:55.713Z,101707.00
2023-03-03T16:28:28.522Z,101704.06
2023-03-03T16:31:04.164Z,101702.25
2023-03-03T16:33:43.772Z,101704.19
2023-03-03T16:36:29.224Z,101702.09
2023-03-03T16:39:04.722Z,101699.66
2023-03-03T16:41:44.053Z,101694.06
2023-03-03T16:44:20.757Z,101691.63
2023-03-03T16:46:50.872Z,101694.28
2023-03-03T16:49:26.750Z,101696.28
2023-03-03T16:52:01.392Z,101699.66
2023-03-03T16:54:36.063Z,101698.94
2023-03-03T16:57:13.782Z,101691.56
2023-03-03T16:59:56.601Z,101695.06
2023-03-03T17:02:46.453Z,101695.34
2023-03-03T17:05:25.306Z,101688.00
2023-03-03T17:08:08.392Z,101693.97
2023-03-03T17:10:48.358Z,101693.81
2023-03-03T17:13:36.743Z,101692.03
2023-03-03T17:16:13.071Z,101696.19
2023-03-03T17:18:53.606Z,101696.78
2023-03-03T17:21:33.850Z,101696.78
2023-03-03T17:24:14.139Z,101700.19
2023-03-03T17:26:52.786Z,101703.25
2023-03-03T17:29:38.077Z,101709.69
2023-03-03T17:32:16.296Z,101707.09
2023-03-03T17:34:56.049Z,101706.53
2023-03-03T17:37:35.485Z,101706.28
2023-03-03T17:40:22.941Z,101704.91
2023-03-03T17:42:58.470Z,101708.91
2023-03-03T17:45:29.060Z,101710.22
2023-03-03T17:48:17.528Z,101710.66
2023-03-03T17:51:07.240Z,101712.59
2023-03-03T17:54:08.805Z,101718.09
2023-03-03T17:56:49.740Z,101720.06
2023-03-03T17:59:39.519Z,101717.25
2023-03-03T18:02:44.341Z,101720.06
2023-03-03T18:05:41.414Z,101712.22
2023-03-03T18:08:28.446Z,101715.63
2023-03-03T18:11:36.398Z,101719.63
2023-03-03T18:14:32.116Z,101715.88
2023-03-03T18:17:35.006Z,101719.53
2023-03-03T18:20:32.141Z,101713.66
2023-03-03T18:23:24.855Z,101711.13
2023-03-03T18:25:55.206Z,101711.50
2023-03-03T18:28:24.252Z,101710.38
2023-03-03T18:30:58.545Z,101708.78
2023-03-03T18:33:44.491Z,101711.59
2023-03-03T18:36:16.447Z,101712.81
2023-03-03T18:38:49.229Z,101707.06
2023-03-03T18:41:24.529Z,101711.44
2023-03-03T18:43:56.066Z,101698.06
2023-03-03T18:46:47.352Z,101705.50
2023-03-03T18:49:16.901Z,101700.88
2023-03-03T18:52:12.993Z,101708.78
2023-03-03T18:54:42.137Z,101702.31
2023-03-03T18:57:16.885Z,101705.13
2023-03-03T18:59:59.321Z,101703.88
2023-03-03T19:02:38.855Z,101700.53
2023-03-03T19:05:18.077Z,101696.47
2023-03-03T19:07:57.575Z,101699.69
2023-03-03T19:10:56.206Z,101701.66
2023-03-03T19:13:42.468Z,101711.66
2023-03-03T19:16:12.329Z,101700.19
2023-03-03T19:19:00.357Z,101714.31
2023-03-03T19:21:31.642Z,101701.50
2023-03-03T19:24:01.314Z,101710.41
2023-03-03T19:26:50.232Z,101711.25
2023-03-03T19:29:55.172Z,101706.22
2023-03-03T19:32:36.258Z,101699.53
2023-03-03T19:35:19.833Z,101703.41
2023-03-03T19:37:56.729Z,101698.25
2023-03-03T19:40:35.097Z,101698.25
2023-03-03T19:43:16.502Z,101694.44
2023-03-03T19:45:55.748Z,101693.78
2023-03-03T19:48:32.735Z,101696.19
2023-03-03T19:51:10.267Z,101693.00
2023-03-03T19:53:48.226Z,101686.53
2023-03-03T19:56:21.329Z,101692.44
2023-03-03T19:59:20.824Z,101692.91
2023-03-03T20:01:59.312Z,101690.94
2023-03-03T20:04:40.835Z,101686.31
2023-03-03T20:07:24.024Z,101687.28
2023-03-03T20:10:02.415Z,101689.97
2023-03-03T20:12:40.094Z,101694.38
2023-03-03T20:15:15.379Z,101695.91
2023-03-03T20:17:52.156Z,101684.81
2023-03-03T20:20:51.150Z,101684.72
2023-03-03T20:23:24.064Z,101695.78
2023-03-03T20:25:56.445Z,101695.47
2023-03-03T20:28:58.626Z,101686.28
2023-03-03T20:31:36.625Z,101684.56
2023-03-03T20:34:12.135Z,101698.38
2023-03-03T20:36:50.131Z,101691.44
2023-03-03T20:39:29.461Z,101688.19
2023-03-03T20:42:06.042Z,101693.97
2023-03-03T20:44:51.260Z,101694.72
2023-03-03T20:47:32.127Z,101687.78
2023-03-03T20:50:16.435Z,101687.19
2023-03-03T20:52:57.179Z,101682.38
2023-03-03T20:55:36.283Z,101681.81
2023-03-03T20:58:10.652Z,101684.25
2023-03-03T21:00:44.566Z,101684.25
2023-03-03T21:03:20.556Z,101686.06
2023-03-03T21:05:59.737Z,101681.13
2023-03-03T21:08:53.584Z,101681.38
2023-03-03T21:11:22.964Z,101688.59
2023-03-03T21:13:54.117Z,101685.75
2023-03-03T21:16:33.499Z,101677.56
2023-03-03T21:19:04.006Z,101684.25
2023-03-03T21:21:34.400Z,101681.16
2023-03-03T21:24:02.199Z,101676.53
2023-03-03T21:26:50.854Z,101675.94
2023-03-03T21:29:29.153Z,101676.06
2023-03-03T21:31:59.139Z,101680.00
2023-03-03T21:34:30.771Z,101673.53
2023-03-03T21:36:59.446Z,101677.63
2023-03-03T21:39:30.717Z,101677.94
2023-03-03T21:42:01.520Z,101672.44
2023-03-03T21:44:38.487Z,101665.38
2023-03-03T21:47:07.620Z,101666.91
2023-03-03T21:49:37.418Z,101669.13
2023-03-03T21:52:05.365Z,101677.63
2023-03-03T21:54:33.086Z,101679.34
2023-03-03T21:57:00.780Z,101665.34
2023-03-03T21:59:28.666Z,101661.97
2023-03-03T22:01:56.471Z,101671.59
2023-03-03T22:04:24.543Z,101664.53
2023-03-03T22:06:53.569Z,101671.72
2023-03-03T22:09:21.259Z,101660.28
2023-03-03T22:11:48.930Z,101657.75
2023-03-03T22:14:16.906Z,101657.00
2023-03-03T22:16:44.613Z,101660.66
2023-03-03T22:19:12.318Z,101655.91
2023-03-03T22:21:40.685Z,101644.78
2023-03-03T22:24:10.075Z,101644.03
2023-03-03T22:26:37.757Z,101638.81
2023-03-03T22:29:06.429Z,101648.16
2023-03-03T22:31:34.189Z,101638.69
2023-03-03T22:34:01.913Z,101646.34
2023-03-03T22:36:29.795Z,101646.50
2023-03-03T22:38:57.452Z,101640.69
2023-03-03T22:41:26.529Z,101641.94
2023-03-03T22:43:54.186Z,101637.41
2023-03-03T22:46:21.879Z,101629.06
2023-03-03T22:48:49.552Z,101633.59
2023-03-03T22:51:18.265Z,101630.31
2023-03-03T22:53:45.871Z,101634.72
2023-03-03T22:56:13.520Z,101632.03
2023-03-03T22:58:43.708Z,101624.28
2023-03-03T23:01:11.413Z,101635.84
2023-03-03T23:03:39.285Z,101634.88
2023-03-03T23:06:07.687Z,101627.94
2023-03-03T23:08:35.346Z,101628.09
2023-03-03T23:11:02.962Z,101626.81
2023-03-03T23:13:31.718Z,101623.56
2023-03-03T23:16:02.429Z,101624.69
2023-03-03T23:18:30.336Z,101622.72
2023-03-03T23:20:58.029Z,101622.59
2023-03-03T23:23:25.974Z,101632.19
2023-03-03T23:25:53.628Z,101620.03
2023-03-03T23:28:21.534Z,101626.25
2023-03-03T23:30:51.752Z,101625.41
2023-03-03T23:33:21.424Z,101615.25
2023-03-03T23:35:49.859Z,101622.28
2023-03-03T23:38:17.765Z,101618.78
2023-03-03T23:40:46.593Z,101617.75
2023-03-03T23:43:14.470Z,101616.06
2023-03-03T23:45:42.107Z,101618.34
2023-03-03T23:48:09.989Z,101617.06
2023-03-03T23:50:39.219Z,101615.38
2023-03-03T23:53:08.139Z,101616.94
2023-03-03T23:55:37.484Z,101618.06
2023-03-03T23:58:05.877Z,101619.34
